Time;durP1;ratioP1;P1;durP2;ratioP2;P2;SDS_P1;SDS_P2;PMS_P1;PMS_P2;Temp;Humidity;BMP_temperature;BMP_pressure;BME280_temperature;BME280_humidity;BME280_pressure;Samples;Min_cycle;Max_cycle;Signal;HPM_P1;HPM_P2
2022/03/16 00:09:23;;;;;;;5.90;4.00;;;;;;;;;;20741274;28;20239;-83
2022/03/16 00:19:26;;;;;;;6.60;4.33;;;;;;;;;;20722279;28;20629;-83
2022/03/16 00:29:27;;;;;;;6.00;3.73;;;;;;;;;;20754270;28;20218;-83
2022/03/16 00:39:29;;;;;;;6.03;3.97;;;;;;;;;;20737444;28;20548;-83
2022/03/16 00:49:31;;;;;;;5.10;3.30;;;;;;;;;;20754103;28;20293;-83
2022/03/16 00:59:33;;;;;;;6.10;4.10;;;;;;;;;;20751611;28;20581;-82
2022/03/16 01:09:36;;;;;;;5.80;3.47;;;;;;;;;;20734654;28;20696;-82
2022/03/16 01:19:38;;;;;;;5.97;4.10;;;;;;;;;;20734525;28;20222;-82
2022/03/16 01:29:39;;;;;;;6.40;4.63;;;;;;;;;;20733282;28;20269;-83
2022/03/16 01:39:41;;;;;;;5.50;3.73;;;;;;;;;;20716431;28;20215;-82
2022/03/16 01:49:43;;;;;;;6.97;4.30;;;7.30;99.90;;;;;;20745219;28;20239;-81
2022/03/16 01:59:45;;;;;;;6.03;3.77;;;;;;;;;;20768805;28;20253;-82
2022/03/16 02:09:48;;;;;;;6.27;4.03;;;7.30;99.90;;;;;;20713836;28;20266;-82
2022/03/16 02:19:49;;;;;;;7.73;4.73;;;;;;;;;;20713358;28;20211;-82
2022/03/16 02:29:51;;;;;;;7.53;4.83;;;;;;;;;;20728904;28;20640;-81
2022/03/16 02:39:53;;;;;;;6.37;4.53;;;;;;;;;;20712123;28;20215;-83
2022/03/16 02:49:55;;;;;;;7.83;5.47;;;;;;;;;;20712206;28;20305;-83
2022/03/16 02:59:58;;;;;;;6.17;4.40;;;;;;;;;;20728990;28;20266;-84
2022/03/16 03:10:01;;;;;;;4.80;3.27;;;;;;;;;;20742118;28;20230;-84
2022/03/16 03:20:03;;;;;;;4.43;3.00;;;;;;;;;;20727077;28;20211;-84
2022/03/16 03:30:06;;;;;;;5.13;3.43;;;;;;;;;;20727516;28;20770;-83
2022/03/16 03:40:08;;;;;;;3.70;3.00;;;;;;;;;;20742991;28;20242;-83
2022/03/16 03:50:11;;;;;;;4.60;3.17;;;;;;;;;;20711332;28;20239;-83
2022/03/16 04:00:14;;;;;;;4.60;3.10;;;;;;;;;;20721762;28;20289;-82
2022/03/16 04:10:16;;;;;;;5.53;3.87;;;;;;;;;;20759797;28;20223;-83
2022/03/16 04:20:17;;;;;;;4.47;3.30;;;;;;;;;;20741249;28;20243;-82
2022/03/16 04:30:19;;;;;;;6.40;3.40;;;;;;;;;;20756050;28;20231;-83
2022/03/16 04:40:21;;;;;;;4.17;2.77;;;;;;;;;;20755791;28;20219;-80
2022/03/16 04:50:23;;;;;;;4.83;3.03;;;;;;;;;;20763319;28;20231;-80
2022/03/16 05:00:25;;;;;;;4.37;2.73;;;;;;;;;;20722701;28;20277;-80
2022/03/16 05:10:27;;;;;;;3.17;2.33;;;;;;;;;;20736069;28;20223;-80
2022/03/16 05:20:28;;;;;;;4.93;3.43;;;;;;;;;;20767324;28;20258;-80
2022/03/16 05:30:30;;;;;;;4.83;3.03;;;;;;;;;;20750250;28;20297;-80
2022/03/16 05:40:32;;;;;;;4.70;3.00;;;;;;;;;;20731684;28;20215;-82
2022/03/16 05:50:34;;;;;;;4.80;3.80;;;6.80;99.90;;;;;;20700085;28;20238;-82
2022/03/16 06:00:37;;;;;;;4.87;3.10;;;;;;;;;;20744095;28;20556;-82
2022/03/16 06:10:39;;;;;;;5.67;3.37;;;;;;;;;;20730938;28;20260;-81
2022/03/16 06:20:41;;;;;;;5.77;4.03;;;;;;;;;;20727638;28;20231;-82
2022/03/16 06:30:44;;;;;;;6.10;3.50;;;;;;;;;;20727278;28;20231;-80
2022/03/16 06:40:45;;;;;;;5.50;3.73;;;;;;;;;;20727616;28;20265;-80
2022/03/16 06:50:47;;;;;;;5.73;3.70;;;;;;;;;;20738653;28;21136;-80
2022/03/16 07:00:49;;;;;;;5.63;3.93;;;;;;;;;;20745490;28;20273;-84
2022/03/16 07:10:51;;;;;;;4.37;3.10;;;;;;;;;;20731409;28;20254;-82
2022/03/16 07:20:53;;;;;;;5.97;3.57;;;;;;;;;;20774954;28;20207;-81
2022/03/16 07:30:55;;;;;;;6.27;3.17;;;;;;;;;;20733407;28;20243;-82
2022/03/16 07:40:57;;;;;;;4.47;3.13;;;;;;;;;;20773207;28;20576;-81
2022/03/16 07:50:59;;;;;;;5.37;3.60;;;;;;;;;;20739777;28;20721;-79
2022/03/16 08:01:01;;;;;;;4.60;3.07;;;;;;;;;;20723638;28;20227;-80
2022/03/16 08:11:02;;;;;;;5.40;3.73;;;;;;;;;;20745576;28;20239;-80
2022/03/16 08:21:06;;;;;;;4.57;3.00;;;;;;;;;;20748112;28;20238;-81
2022/03/16 08:31:08;;;;;;;4.77;3.67;;;;;;;;;;20768718;28;20596;-79
2022/03/16 08:41:10;;;;;;;5.87;3.50;;;;;;;;;;20751359;28;20289;-80
2022/03/16 08:51:12;;;;;;;4.97;3.17;;;;;;;;;;20750746;28;20799;-80
2022/03/16 09:01:15;;;;;;;5.40;3.47;;;;;;;;;;20750758;28;20281;-80
2022/03/16 09:11:16;;;;;;;4.13;2.93;;;;;;;;;;20718144;28;20235;-81
2022/03/16 09:21:18;;;;;;;6.83;3.40;;;;;;;;;;20769619;28;20227;-80
2022/03/16 09:31:20;;;;;;;6.10;3.53;;;;;;;;;;20732888;28;20743;-80
2022/03/16 09:41:22;;;;;;;7.23;3.93;;;;;;;;;;20732822;28;20276;-80
2022/03/16 09:51:24;;;;;;;5.67;3.60;;;;;;;;;;20713085;28;20235;-80
2022/03/16 10:01:26;;;;;;;6.53;3.67;;;;;;;;;;20729066;28;20254;-80
2022/03/16 10:21:58;;;;;;;3.70;2.63;;;;;;;;;;20744720;28;20207;-80
2022/03/16 10:32:04;;;;;;;6.40;3.47;;;10.40;99.90;;;;;;20723779;28;20219;-81
2022/03/16 10:52:34;;;;;;;7.43;4.43;;;;;;;;;;20745379;28;20593;-81
2022/03/16 11:02:37;;;;;;;11.23;5.53;;;;;;;;;;20744310;28;20258;-80
2022/03/16 11:33:26;;;;;;;7.63;4.70;;;;;;;;;;20762618;28;20215;-79
2022/03/16 11:43:27;;;;;;;11.90;4.80;;;;;;;;;;20744226;28;20227;-80
2022/03/16 11:53:29;;;;;;;6.27;4.43;;;;;;;;;;20777914;28;20254;-80
2022/03/16 12:03:42;;;;;;;7.43;4.77;;;;;;;;;;20725363;28;20227;-81
2022/03/16 12:13:45;;;;;;;8.40;4.23;;;;;;;;;;20742225;28;20203;-80
2022/03/16 12:23:58;;;;;;;6.33;4.23;;;11.10;99.90;;;;;;20796103;28;20231;-80
2022/03/16 12:34:00;;;;;;;6.30;4.13;;;;;;;;;;20788729;28;20246;-81
2022/03/16 12:44:03;;;;;;;5.83;3.87;;;11.50;99.90;;;;;;20744060;28;20281;-80
2022/03/16 12:54:06;;;;;;;5.47;3.40;;;;;;;;;;20751993;28;20227;-80
2022/03/16 13:04:08;;;;;;;6.33;3.93;;;;;;;;;;20768762;28;20297;-80
2022/03/16 13:14:16;;;;;;;5.80;3.90;;;11.10;99.90;;;;;;20754197;28;20207;-80
2022/03/16 13:24:18;;;;;;;5.37;3.40;;;;;;;;;;20758170;28;20227;-80
2022/03/16 13:34:20;;;;;;;6.17;3.67;;;;;;;;;;20778304;28;20622;-80
2022/03/16 13:44:24;;;;;;;4.73;3.33;;;;;;;;;;20749360;28;20223;-81
2022/03/16 13:54:26;;;;;;;5.93;4.17;;;11.20;99.90;;;;;;20731251;28;20697;-80
2022/03/16 14:04:30;;;;;;;4.27;2.97;;;11.30;99.90;;;;;;20694091;28;20227;-81
2022/03/16 14:14:31;;;;;;;5.30;3.27;;;;;;;;;;20746674;28;20554;-80
2022/03/16 14:24:34;;;;;;;4.60;3.37;;;11.20;99.90;;;;;;20729784;28;20227;-80
2022/03/16 14:34:36;;;;;;;4.57;3.67;;;;;;;;;;20746521;28;20215;-80
2022/03/16 14:44:38;;;;;;;4.33;3.07;;;;;;;;;;20728825;28;20227;-80
2022/03/16 14:54:40;;;;;;;5.00;3.10;;;;;;;;;;20728665;28;20293;-82
2022/03/16 15:04:43;;;;;;;5.00;3.13;;;;;;;;;;20792640;28;20257;-80
2022/03/16 15:14:45;;;;;;;3.53;2.47;;;;;;;;;;20856277;28;20224;-80
2022/03/16 15:24:48;;;;;;;7.90;2.83;;;11.30;99.90;;;;;;20842767;28;20281;-80
2022/03/16 15:34:50;;;;;;;3.07;2.30;;;;;;;;;;20744782;28;20223;-80
2022/03/16 15:44:52;;;;;;;2.83;1.80;;;11.40;99.90;;;;;;20738744;28;20230;-80
2022/03/16 15:54:55;;;;;;;3.67;2.20;;;;;;;;;;20750944;28;20297;-80
2022/03/16 16:04:57;;;;;;;4.17;2.67;;;;;;;;;;20773326;28;20223;-80
2022/03/16 16:14:59;;;;;;;7.33;3.30;;;;;;;;;;20762747;28;20223;-79
2022/03/16 16:25:01;;;;;;;4.63;3.37;;;;;;;;;;20767013;28;20239;-81
2022/03/16 16:35:04;;;;;;;6.40;3.53;;;;;;;;;;20760056;28;20242;-79
2022/03/16 16:45:06;;;;;;;4.77;3.10;;;;;;;;;;20756962;28;20993;-81
2022/03/16 16:55:09;;;;;;;4.93;3.10;;;;;;;;;;20731365;28;20258;-80
2022/03/16 17:05:11;;;;;;;6.27;3.63;;;;;;;;;;20789112;28;20223;-80
2022/03/16 17:15:14;;;;;;;4.53;3.00;;;;;;;;;;20845017;28;20230;-80
2022/03/16 17:25:16;;;;;;;3.93;2.87;;;10.90;99.90;;;;;;20699653;28;20274;-80
2022/03/16 17:35:17;;;;;;;7.40;3.00;;;;;;;;;;20727467;28;20223;-79
2022/03/16 17:45:31;;;;;;;5.97;3.37;;;;;;;;;;20751626;28;20274;-79
2022/03/16 18:05:54;;;;;;;6.37;3.40;;;10.60;99.90;;;;;;20742128;28;20253;-80
2022/03/16 18:15:57;;;;;;;5.23;3.73;;;;;;;;;;20749817;28;20337;-79
2022/03/16 18:25:59;;;;;;;7.00;4.67;;;;;;;;;;20810879;28;20215;-80
2022/03/16 18:36:02;;;;;;;6.87;4.47;;;;;;;;;;20743115;28;20219;-80
2022/03/16 18:46:04;;;;;;;6.33;4.30;;;;;;;;;;20725861;28;20277;-80
2022/03/16 18:56:06;;;;;;;5.73;3.97;;;;;;;;;;20696644;28;20222;-81
2022/03/16 19:06:08;;;;;;;6.77;3.83;;;10.20;99.90;;;;;;20723989;28;20231;-80
2022/03/16 19:16:10;;;;;;;6.03;3.83;;;;;;;;;;20723231;28;20332;-80
2022/03/16 19:26:14;;;;;;;7.27;4.07;;;;;;;;;;20759280;28;20438;-80
2022/03/16 19:36:16;;;;;;;6.60;3.37;;;;;;;;;;20762325;28;20270;-79
2022/03/16 19:46:18;;;;;;;5.33;3.30;;;;;;;;;;20721462;28;20281;-79
2022/03/16 19:56:20;;;;;;;5.27;3.73;;;;;;;;;;20739274;28;20215;-80
2022/03/16 20:06:22;;;;;;;6.47;4.03;;;;;;;;;;20740879;28;20258;-82
2022/03/16 20:26:28;;;;;;;6.33;4.00;;;;;;;;;;20956963;28;20585;-64
2022/03/16 20:36:30;;;;;;;6.70;3.80;;;;;;;;;;20824490;28;20264;-65
2022/03/16 20:46:32;;;;;;;6.40;3.97;;;;;;;;;;20821311;28;20276;-65
2022/03/16 20:56:34;;;;;;;7.97;4.07;;;;;;;;;;20845188;28;20206;-65
2022/03/16 21:06:37;;;;;;;5.80;3.60;;;;;;;;;;20832675;28;20210;-65
2022/03/16 21:16:38;;;;;;;5.30;3.30;;;;;;;;;;20926598;28;20259;-65
2022/03/16 21:26:40;;;;;;;5.03;3.70;;;;;;;;;;20899593;28;20210;-65
2022/03/16 21:36:42;;;;;;;6.23;4.27;;;;;;;;;;20851604;28;20236;-66
2022/03/16 21:46:44;;;;;;;6.70;3.87;;;;;;;;;;20840214;28;20214;-65
2022/03/16 21:56:48;;;;;;;5.77;4.40;;;;;;;;;;20797195;28;20685;-65
2022/03/16 22:06:50;;;;;;;4.80;3.23;;;;;;;;;;20873226;28;20628;-65
2022/03/16 22:16:52;;;;;;;6.20;4.03;;;;;;;;;;20758020;22;20584;-67
2022/03/16 22:26:54;;;;;;;6.07;4.63;;;;;;;;;;20651723;28;20251;-67
2022/03/16 22:36:56;;;;;;;6.80;4.53;;;;;;;;;;20612373;28;20219;-67
2022/03/16 22:46:59;;;;;;;7.20;4.30;;;;;;;;;;20642724;28;20293;-66
2022/03/16 22:57:01;;;;;;;5.17;3.27;;;;;;;;;;20664785;28;20208;-66
2022/03/16 23:07:03;;;;;;;6.40;4.47;;;9.50;99.90;;;;;;20631256;28;20772;-67
2022/03/16 23:17:05;;;;;;;6.10;3.70;;;;;;;;;;20631277;28;20220;-67
2022/03/16 23:27:07;;;;;;;8.60;4.33;;;;;;;;;;20630469;28;20220;-67
2022/03/16 23:37:08;;;;;;;7.10;4.67;;;;;;;;;;20661851;28;20208;-67
2022/03/16 23:47:11;;;;;;;6.60;4.17;;;;;;;;;;20645638;28;20259;-67
2022/03/16 23:57:13;;;;;;;6.57;4.33;;;9.60;99.90;;;;;;20628390;28;20215;-67
